マガダン の空港の天気 - METARとTAF

マガダン・ソコル空港 ( UHMM / GDX ) - ロシア マガダン
飛行場実況気象(Metar)
観測時間01/19 22:00 MAGT (01/19 11:00 UTC)
風向・風速静穏 0m/s
視程10km以上
天気現象
なし
気温-23℃
湿度76%
気圧1006hPa
METARUHMM 191100Z 00000MPS 9999 NSC M23/M26 Q1006 RMK QFE740
過去の天気等 Google飛行場航空写真 Wunderground天気予報

過去48時間のMETAR

飛行場予報(TAF)
発表時間: 1/19 18:50 MAGT (1/19 07:50 UTC)
予報対象時間: 19日20時 MAGT ~ 21日2時 MAGT
風向・風速東 3m/s 瞬間風速 8m/s
視程10km以上
全天の4割程度の雲 雲底高度 910m
全天を覆う雲 雲底高度 2130m
20日11時 MAGT から
風向・風速北北東 5m/s 瞬間風速 12m/s
視程10km以上
全天の8割程度の積乱雲 雲底高度 910m
全天を覆う雲 雲底高度 2130m
20日11時 MAGT ~ 21日2時 MAGT に一時的に
視程3100m
天気現象弱いしゅう雪
全天を覆う積乱雲 雲底高度 760m
TAF UHMM 190750Z 1909/2015 09003G08MPS 9999 SCT030 OVC070
FM200000 03005G12MPS 9999 BKN030CB OVC070
TEMPO 2000/2015 3100 -SHSN OVC025CB